Accueil
METAR-TAF:

METAR-TAF

Aéroports :

Aéroport de Londres-Stansted

Londres-Stansted, Angleterre

latitude: 51-53N, longitude: 000-14E, altitude: 106 m

Observation

Le bulletin a été fait il y a 11 minutes, à 02:50 UTC
Vent 3 kt de direction variable
Température 10°C
Humidité 93%
Pression 1017 hPa
Visibilité 10 km ou plus

METAR: EGSS 170250Z AUTO VRB03KT 9999 NCD 10/09 Q1017

Heure: 04:01 (03:01 UTC)

Prévision

Le bulletin a été fait il y a 4 heures et 7 minutes, à 22:54 UTC
Prévision valable du 17 à 00 UTC au 18 à 06 UTC
Vent 8 kt de ouest
Visibilité 10 km ou plus
Quelques nuages à une hauteur de 4500 ft
Probabilité 30% :
Temporairement
du 18 à 04 UTC au 18 à 06 UTC
Nuages fragmentés à une hauteur de 1200 ft

TAF: EGSS 162254Z 1700/1806 26008KT 9999 FEW045 PROB30 TEMPO 1804/1806 BKN012

Observations et prévisions météorologiques de plus de 4000 aéroports (messages METAR et TAF).

Les stations disponibles sont représentées par des disques jaunes et rouges sur la carte.

Passer la souris dessus pour voir le nom de la station.

Cliquer dessus pour voir les observations et prévisions météorologiques.

Pour changer de carte: cliquez sur les boutons verts avec une croix noire pour zoomer, sur le bouton vert avec un tiret pour effectuer un zoom arrière, ou sur les flèches vertes pour les cartes adjacentes.


METAR-TAF: